Time;durP1;ratioP1;P1;durP2;ratioP2;P2;SDS_P1;SDS_P2;PMS_P1;PMS_P2;Temp;Humidity;BMP_temperature;BMP_pressure;BME280_temperature;BME280_humidity;BME280_pressure;Samples;Min_cycle;Max_cycle;Signal;HPM_P1;HPM_P2
2021/12/13 11:26:06;;;;;;;11.20;6.00;;;10.20;99.90;;;;;;5051502;27;20703;-51
2021/12/13 13:59:07;;;;;;;6.73;4.17;;;9.80;99.90;;;;;;5022565;27;1281677;-51
2021/12/13 14:01:54;;;;;;;6.70;4.63;;;9.80;99.90;;;;;;5066670;28;20231;-51
2021/12/13 14:04:36;;;;;;;6.50;4.03;;;9.80;99.90;;;;;;5063711;28;20392;-52
2021/12/13 14:07:08;;;;;;;6.00;4.20;;;9.70;99.90;;;;;;5068460;28;20223;-52
2021/12/13 14:09:52;;;;;;;5.70;3.90;;;9.80;99.90;;;;;;5071726;28;20194;-52
2021/12/13 14:12:22;;;;;;;7.67;4.67;;;9.80;99.90;;;;;;5069985;28;20926;-51
2021/12/13 14:14:54;;;;;;;5.60;4.07;;;9.90;99.90;;;;;;5071397;28;20647;-51
2021/12/13 14:17:36;;;;;;;5.60;4.30;;;9.90;99.90;;;;;;5077188;28;20249;-52
2021/12/13 14:20:28;;;;;;;5.67;4.30;;;9.90;99.90;;;;;;5071037;28;20221;-51
2021/12/13 14:23:00;;;;;;;5.17;4.30;;;9.90;99.90;;;;;;5072871;28;20203;-50
2021/12/13 14:25:38;;;;;;;6.63;4.90;;;9.80;99.90;;;;;;5069119;28;20553;-49
2021/12/13 14:28:07;;;;;;;4.40;3.70;;;9.90;99.90;;;;;;5068083;28;20202;-51
2021/12/13 14:30:48;;;;;;;4.53;4.00;;;9.90;99.90;;;;;;5070509;28;20290;-52
2021/12/13 14:33:36;;;;;;;6.17;4.33;;;9.90;99.90;;;;;;5069753;28;20203;-51
2021/12/13 14:36:11;;;;;;;4.70;3.67;;;9.90;99.90;;;;;;5068658;28;20249;-50
2021/12/13 14:38:42;;;;;;;5.27;4.17;;;9.80;99.90;;;;;;5051085;28;20249;-50
2021/12/13 14:41:12;;;;;;;6.47;4.37;;;9.90;99.90;;;;;;5069040;28;20340;-49
2021/12/13 14:43:45;;;;;;;7.43;4.03;;;9.80;99.90;;;;;;5071808;28;20726;-50
2021/12/13 14:46:18;;;;;;;7.30;4.03;;;9.90;99.90;;;;;;5067235;28;20210;-51
2021/12/13 14:48:46;;;;;;;9.80;3.73;;;9.90;99.90;;;;;;5070743;28;20649;-50
2021/12/13 14:51:16;;;;;;;6.60;4.13;;;9.90;99.90;;;;;;5071032;28;20635;-50
2021/12/13 14:53:45;;;;;;;6.20;4.20;;;9.90;99.90;;;;;;5069071;28;20209;-51
2021/12/13 14:56:20;;;;;;;6.77;3.80;;;9.90;99.90;;;;;;5071327;28;20287;-51
2021/12/13 14:58:55;;;;;;;6.70;3.80;;;9.90;99.90;;;;;;5068469;28;20265;-53
2021/12/13 15:01:29;;;;;;;5.57;3.77;;;9.90;99.90;;;;;;5069590;28;20293;-52
2021/12/13 15:04:04;;;;;;;5.30;3.80;;;9.90;99.90;;;;;;5069069;28;20207;-52
2021/12/13 15:06:37;;;;;;;6.17;3.87;;;9.80;99.90;;;;;;5069971;28;20230;-52
2021/12/13 15:09:10;;;;;;;7.13;4.17;;;9.80;99.90;;;;;;5062769;28;20298;-50
2021/12/13 15:11:55;;;;;;;9.37;4.57;;;9.90;99.90;;;;;;5055844;28;20357;-51
2021/12/13 15:14:27;;;;;;;7.43;4.00;;;9.90;99.90;;;;;;5055816;28;20287;-51
2021/12/13 15:17:01;;;;;;;5.57;3.67;;;9.90;99.90;;;;;;5059004;28;20296;-51
2021/12/13 15:19:30;;;;;;;3.87;3.40;;;9.90;99.90;;;;;;5056100;28;20203;-51
2021/12/13 15:22:00;;;;;;;5.43;4.23;;;9.80;99.90;;;;;;5056702;28;20286;-50
2021/12/13 15:24:36;;;;;;;4.83;3.93;;;9.80;99.90;;;;;;5057897;28;20211;-50
2021/12/13 15:27:07;;;;;;;5.57;3.50;;;9.80;99.90;;;;;;5050001;28;20203;-51
2021/12/13 15:29:35;;;;;;;5.93;3.73;;;9.90;99.90;;;;;;5052093;28;20304;-52
2021/12/13 15:32:06;;;;;;;5.43;3.83;;;9.80;99.90;;;;;;5058982;28;20322;-50
2021/12/13 15:34:53;;;;;;;4.20;3.27;;;9.80;99.90;;;;;;5052380;28;20329;-51
2021/12/13 15:37:35;;;;;;;5.97;4.50;;;9.80;99.90;;;;;;5054533;28;20252;-50
2021/12/13 15:40:22;;;;;;;4.80;3.27;;;9.90;99.90;;;;;;5057627;28;20227;-50
2021/12/13 15:43:06;;;;;;;7.87;4.20;;;9.80;99.90;;;;;;5053717;28;20338;-52
2021/12/13 15:45:37;;;;;;;6.13;3.60;;;9.90;99.90;;;;;;5058195;28;20205;-53
2021/12/13 15:52:22;;;;;;;4.83;3.73;;;10.40;99.90;;;;;;5081672;27;1293329;-54
2021/12/13 15:54:56;;;;;;;3.60;3.07;;;10.20;99.90;;;;;;5103203;28;20573;-55
2021/12/13 15:57:30;;;;;;;5.03;3.47;;;10.00;99.90;;;;;;5100501;28;20206;-54
2021/12/13 16:00:05;;;;;;;6.43;3.90;;;9.90;99.90;;;;;;5100845;28;20630;-54
2021/12/13 16:02:34;;;;;;;3.80;3.37;;;9.80;99.90;;;;;;5100708;28;21119;-53
2021/12/13 16:05:05;;;;;;;4.20;3.40;;;9.80;99.90;;;;;;5109804;27;20218;-55
2021/12/13 16:07:34;;;;;;;4.83;3.60;;;9.80;99.90;;;;;;5097355;28;20868;-53
2021/12/13 16:10:17;;;;;;;4.87;3.53;;;9.80;99.90;;;;;;5102843;28;20193;-54
2021/12/13 16:12:48;;;;;;;7.43;3.70;;;9.80;99.90;;;;;;5106952;28;20198;-55
2021/12/13 16:15:25;;;;;;;3.83;3.43;;;9.80;99.90;;;;;;5112976;28;20271;-53
2021/12/13 16:17:56;;;;;;;4.77;3.70;;;9.80;99.90;;;;;;5098812;28;20209;-53
2021/12/13 16:20:42;;;;;;;4.37;3.60;;;9.80;99.90;;;;;;5104972;28;20205;-53
2021/12/13 16:23:22;;;;;;;4.70;3.67;;;9.90;99.90;;;;;;5108088;28;20202;-54
2021/12/13 16:26:00;;;;;;;4.93;3.27;;;9.90;99.90;;;;;;5107591;28;20205;-53
2021/12/13 16:28:32;;;;;;;5.47;3.53;;;9.80;99.90;;;;;;5105313;28;20286;-53
2021/12/13 16:31:19;;;;;;;8.60;5.27;;;9.80;99.90;;;;;;5110916;28;20287;-54
2021/12/13 16:33:49;;;;;;;8.97;5.40;;;9.80;99.90;;;;;;5098556;28;20204;-53
2021/12/13 16:36:23;;;;;;;4.83;3.67;;;9.90;99.90;;;;;;5110628;28;20603;-52
2021/12/13 16:38:57;;;;;;;5.23;3.07;;;9.80;99.90;;;;;;5103034;28;20328;-53
2021/12/13 16:41:25;;;;;;;6.47;3.10;;;9.70;99.90;;;;;;5084652;28;20289;-52
2021/12/13 16:43:58;;;;;;;1.03;0.77;;;9.70;99.90;;;;;;5084426;28;20214;-55
2021/12/13 16:46:29;;;;;;;6.33;3.17;;;9.70;99.90;;;;;;5074088;28;20206;-53
2021/12/13 16:49:12;;;;;;;5.60;3.60;;;9.70;99.90;;;;;;5084574;28;20202;-53
2021/12/13 16:51:47;;;;;;;5.10;3.30;;;9.70;99.90;;;;;;5077795;28;20250;-52
2021/12/13 16:54:24;;;;;;;6.07;3.63;;;9.70;99.90;;;;;;5087798;28;20201;-55
2021/12/13 16:56:54;;;;;;;6.00;3.73;;;9.70;99.90;;;;;;5076326;28;20247;-54
2021/12/13 16:59:21;;;;;;;4.87;3.30;;;9.70;99.90;;;;;;5080139;28;20258;-53
2021/12/13 17:01:52;;;;;;;5.63;3.40;;;9.70;99.90;;;;;;5098726;28;20205;-55
2021/12/13 17:04:48;;;;;;;5.40;3.03;;;9.80;99.90;;;;;;5074864;28;21118;-54
2021/12/13 17:07:19;;;;;;;4.03;2.97;;;9.80;99.90;;;;;;5066727;28;20243;-53
2021/12/13 17:10:04;;;;;;;5.20;3.80;;;9.70;99.90;;;;;;5071473;28;20214;-54
2021/12/13 17:12:46;;;;;;;5.30;3.20;;;9.70;99.90;;;;;;5072323;28;20673;-53
2021/12/13 17:15:16;;;;;;;4.87;3.33;;;9.80;99.90;;;;;;5074749;28;21066;-51
2021/12/13 17:17:44;;;;;;;5.37;3.70;;;9.70;99.90;;;;;;5070876;28;21078;-53
2021/12/13 17:20:30;;;;;;;4.90;3.37;;;9.80;99.90;;;;;;5062899;28;20887;-53
2021/12/13 17:23:22;;;;;;;4.13;3.20;;;9.80;99.90;;;;;;5064718;28;20662;-54
2021/12/13 17:25:49;;;;;;;7.57;3.60;;;9.80;99.90;;;;;;5067521;28;20241;-54
2021/12/13 17:28:16;;;;;;;4.50;3.73;;;9.80;99.90;;;;;;5072750;28;20259;-55
2021/12/13 17:30:51;;;;;;;6.70;3.60;;;9.80;99.90;;;;;;5076256;28;20268;-55
2021/12/13 17:33:32;;;;;;;6.37;3.60;;;9.80;99.90;;;;;;5077704;28;20244;-52
2021/12/13 17:35:59;;;;;;;6.03;3.77;;;9.70;99.90;;;;;;5070344;28;20195;-53
2021/12/13 17:38:28;;;;;;;8.80;3.57;;;9.70;99.90;;;;;;5063824;28;20257;-53
2021/12/13 17:40:57;;;;;;;5.17;3.57;;;9.70;99.90;;;;;;5078668;28;20229;-54
2021/12/13 17:43:32;;;;;;;5.90;4.17;;;9.70;99.90;;;;;;5069098;28;20205;-54
2021/12/13 17:46:08;;;;;;;6.67;3.57;;;9.70;99.90;;;;;;5077199;28;20297;-54
2021/12/13 17:48:35;;;;;;;8.47;3.33;;;9.70;99.90;;;;;;5070978;28;20202;-52
2021/12/13 17:51:04;;;;;;;4.63;3.17;;;9.70;99.90;;;;;;5068148;28;20238;-52
2021/12/13 17:53:49;;;;;;;4.37;3.40;;;9.70;99.90;;;;;;5074363;28;20223;-53
2021/12/13 17:56:19;;;;;;;7.67;3.97;;;9.70;99.90;;;;;;5075404;28;20209;-52
2021/12/13 17:59:05;;;;;;;4.43;3.67;;;9.70;99.90;;;;;;5072882;28;20195;-53
2021/12/13 18:01:43;;;;;;;3.90;3.10;;;9.70;99.90;;;;;;5076999;28;20274;-54
2021/12/13 18:04:16;;;;;;;5.53;3.90;;;9.70;99.90;;;;;;5071902;28;20326;-53
2021/12/13 18:06:45;;;;;;;5.40;3.50;;;9.60;99.90;;;;;;5072368;28;20215;-52
2021/12/13 18:09:15;;;;;;;4.47;3.53;;;9.60;99.90;;;;;;5074296;28;20237;-52
2021/12/13 18:12:09;;;;;;;5.20;3.30;;;9.60;99.90;;;;;;5073048;28;20391;-51
2021/12/13 18:14:39;;;;;;;4.97;3.10;;;9.70;99.90;;;;;;5068000;28;20526;-55
2021/12/13 18:17:14;;;;;;;5.60;3.27;;;9.70;99.90;;;;;;5076172;28;20285;-55
2021/12/13 18:19:54;;;;;;;4.77;3.40;;;9.70;99.90;;;;;;5071141;28;20289;-53
2021/12/13 18:22:24;;;;;;;5.23;3.20;;;9.60;99.90;;;;;;5068232;28;20205;-54
2021/12/13 18:24:51;;;;;;;6.90;3.47;;;9.60;99.90;;;;;;5076845;28;20278;-54
2021/12/13 18:27:43;;;;;;;5.13;3.70;;;9.60;99.90;;;;;;5075945;28;20261;-53
2021/12/13 18:30:16;;;;;;;4.70;3.30;;;9.60;99.90;;;;;;5063059;28;20215;-53
2021/12/13 18:32:45;;;;;;;4.83;3.50;;;9.70;99.90;;;;;;5073174;28;20393;-53
2021/12/13 18:35:30;;;;;;;4.60;3.90;;;9.70;99.90;;;;;;5067043;28;20207;-53
2021/12/13 18:38:02;;;;;;;3.93;3.20;;;9.70;99.90;;;;;;5065435;28;20202;-53
2021/12/13 18:40:34;;;;;;;3.53;3.23;;;9.70;99.90;;;;;;5074922;28;20226;-54
2021/12/13 18:43:07;;;;;;;4.37;3.63;;;9.60;99.90;;;;;;5070650;28;20225;-54
2021/12/13 18:45:40;;;;;;;4.83;3.40;;;9.60;99.90;;;;;;5074954;28;20192;-55
2021/12/13 18:48:20;;;;;;;4.43;3.40;;;9.70;99.90;;;;;;5077139;28;20207;-55
2021/12/13 18:50:53;;;;;;;4.07;3.33;;;9.60;99.90;;;;;;4498061;28;10002775;-53
2021/12/13 18:53:26;;;;;;;5.97;3.47;;;9.70;99.90;;;;;;5077492;28;20232;-54
2021/12/13 18:56:02;;;;;;;3.60;3.07;;;9.70;99.90;;;;;;5072867;28;20206;-53
2021/12/13 18:58:48;;;;;;;3.73;3.20;;;9.70;99.90;;;;;;5066700;28;20252;-54
2021/12/13 19:01:26;;;;;;;4.27;3.10;;;9.60;99.90;;;;;;5067357;28;20421;-52
2021/12/13 19:04:01;;;;;;;5.33;3.77;;;9.50;99.90;;;;;;5071475;28;20236;-53
2021/12/13 19:06:41;;;;;;;6.13;4.10;;;9.50;99.90;;;;;;5076011;28;20230;-55
2021/12/13 19:09:18;;;;;;;5.63;3.30;;;9.50;99.90;;;;;;5074762;28;20638;-54
2021/12/13 19:11:51;;;;;;;5.63;3.17;;;9.60;99.90;;;;;;5064781;28;20213;-52
2021/12/13 19:14:21;;;;;;;8.97;3.93;;;9.60;99.90;;;;;;5075454;28;20207;-51
2021/12/13 19:17:04;;;;;;;6.30;3.90;;;9.60;99.90;;;;;;5069877;28;20197;-53
2021/12/13 19:19:36;;;;;;;6.03;3.30;;;9.50;99.90;;;;;;5064668;28;20234;-53
2021/12/13 19:22:26;;;;;;;7.07;3.50;;;9.50;99.90;;;;;;5073386;28;20765;-53
2021/12/13 19:25:05;;;;;;;5.37;3.37;;;9.50;99.90;;;;;;5070557;28;20792;-53
2021/12/13 19:27:39;;;;;;;5.73;3.50;;;9.50;99.90;;;;;;5063983;28;20711;-53
2021/12/13 19:30:29;;;;;;;4.47;3.40;;;9.50;99.90;;;;;;5073986;28;20204;-53
2021/12/13 19:33:26;;;;;;;6.23;3.50;;;9.50;99.90;;;;;;5068779;28;20268;-53
2021/12/13 19:36:04;;;;;;;5.03;3.90;;;9.50;99.90;;;;;;5074868;28;20281;-53
2021/12/13 19:38:44;;;;;;;6.30;3.90;;;9.50;99.90;;;;;;5078637;28;20274;-53
2021/12/13 19:41:37;;;;;;;6.13;3.80;;;9.40;99.90;;;;;;5075218;28;20247;-55
2021/12/13 19:44:54;;;;;;;4.83;4.00;;;9.50;99.90;;;;;;5076261;28;20212;-54
2021/12/13 19:47:36;;;;;;;4.63;3.63;;;9.40;99.90;;;;;;5010304;28;20298;-53
2021/12/13 19:50:26;;;;;;;5.87;4.10;;;9.50;99.90;;;;;;5011271;28;20723;-55
2021/12/13 19:53:24;;;;;;;4.97;3.80;;;9.40;99.90;;;;;;5010806;28;20722;-54
2021/12/13 19:56:24;;;;;;;5.63;4.83;;;9.40;99.90;;;;;;5001798;28;20764;-55
2021/12/13 19:59:06;;;;;;;5.67;4.00;;;9.40;99.90;;;;;;5010560;28;20252;-54
2021/12/13 20:01:47;;;;;;;6.40;4.50;;;9.50;99.90;;;;;;5009844;28;20236;-53
2021/12/13 20:04:35;;;;;;;6.10;4.40;;;9.50;99.90;;;;;;5009563;28;20221;-52
2021/12/13 20:07:23;;;;;;;9.00;4.53;;;9.40;99.90;;;;;;5011210;28;20214;-54
2021/12/13 20:10:23;;;;;;;8.97;5.00;;;9.40;99.90;;;;;;5009234;28;20888;-55
2021/12/13 20:13:03;;;;;;;5.40;4.20;;;9.40;99.90;;;;;;5010429;28;20217;-53
2021/12/13 20:15:35;;;;;;;5.73;4.63;;;9.40;99.90;;;;;;5007955;28;20227;-54
2021/12/13 20:18:13;;;;;;;5.53;4.63;;;9.30;99.90;;;;;;5038219;28;20210;-54
2021/12/13 20:20:45;;;;;;;6.50;4.93;;;9.30;99.90;;;;;;5075190;28;20218;-53
2021/12/13 20:23:26;;;;;;;5.83;4.33;;;9.40;99.90;;;;;;5077830;28;20237;-55
2021/12/13 20:26:00;;;;;;;7.03;5.00;;;9.30;99.90;;;;;;5066751;28;20938;-54
2021/12/13 20:28:56;;;;;;;5.30;4.80;;;9.30;99.90;;;;;;5069837;28;20320;-54
2021/12/13 20:31:35;;;;;;;8.13;5.10;;;9.40;99.90;;;;;;5050130;28;21536;-53
2021/12/13 20:34:30;;;;;;;8.03;5.37;;;9.30;99.90;;;;;;5063307;28;20206;-53
2021/12/13 20:37:13;;;;;;;6.30;4.57;;;9.30;99.90;;;;;;5045095;28;20208;-54
2021/12/13 20:40:07;;;;;;;5.20;4.67;;;9.30;99.90;;;;;;5072051;28;20269;-54
2021/12/13 20:42:44;;;;;;;7.80;5.40;;;9.30;99.90;;;;;;5056812;28;20331;-53
2021/12/13 20:45:44;;;;;;;7.17;5.30;;;9.20;99.90;;;;;;5072756;28;20232;-53
2021/12/13 20:48:15;;;;;;;7.87;5.63;;;9.30;99.90;;;;;;5071369;28;20889;-55
2021/12/13 20:50:49;;;;;;;11.40;5.80;;;9.20;99.90;;;;;;5071628;28;20244;-54
2021/12/13 20:53:22;;;;;;;6.33;5.13;;;9.30;99.90;;;;;;5077870;28;20305;-54
2021/12/13 20:56:00;;;;;;;8.40;5.10;;;9.30;99.90;;;;;;5076342;28;20197;-53
2021/12/13 20:58:38;;;;;;;7.03;5.67;;;9.20;99.90;;;;;;5070882;28;20232;-53
2021/12/13 21:01:17;;;;;;;7.80;5.50;;;9.20;99.90;;;;;;5064569;28;20302;-54
2021/12/13 21:03:58;;;;;;;7.63;5.40;;;9.30;99.90;;;;;;5068915;28;20192;-54
2021/12/13 21:06:38;;;;;;;8.23;6.00;;;9.30;99.90;;;;;;5066989;28;20260;-54
2021/12/13 21:09:14;;;;;;;8.90;5.83;;;9.20;99.90;;;;;;5067783;28;20290;-54
2021/12/13 21:11:46;;;;;;;7.57;5.77;;;9.20;99.90;;;;;;5070262;28;20318;-53
2021/12/13 21:14:16;;;;;;;7.53;5.30;;;9.30;99.90;;;;;;5067161;28;20671;-53
2021/12/13 21:16:51;;;;;;;8.13;5.87;;;9.30;99.90;;;;;;5070868;28;20204;-54
2021/12/13 21:19:26;;;;;;;8.03;6.33;;;9.30;99.90;;;;;;5081119;28;20201;-54
2021/12/13 21:22:06;;;;;;;8.73;5.80;;;9.40;99.90;;;;;;5068808;28;20236;-55
2021/12/13 21:24:50;;;;;;;9.00;5.67;;;9.40;99.90;;;;;;5076930;28;20878;-54
2021/12/13 21:27:26;;;;;;;8.47;5.40;;;9.40;99.90;;;;;;5070011;28;20237;-54
2021/12/13 21:29:58;;;;;;;6.97;5.60;;;9.40;99.90;;;;;;5069722;28;20256;-53
2021/12/13 21:32:29;;;;;;;7.20;5.53;;;9.40;99.90;;;;;;5073721;28;20314;-54
2021/12/13 21:35:18;;;;;;;8.93;6.20;;;9.40;99.90;;;;;;5077064;28;21160;-55
2021/12/13 21:40:43;;;;;;;6.90;5.60;;;9.30;99.90;;;;;;5072389;28;20327;-55
2021/12/13 21:43:11;;;;;;;8.87;5.93;;;9.40;99.90;;;;;;5061179;28;20814;-55
2021/12/13 21:45:52;;;;;;;6.50;5.30;;;9.30;99.90;;;;;;5062339;28;20657;-54
2021/12/13 21:48:24;;;;;;;7.20;5.33;;;9.30;99.90;;;;;;5058691;28;20214;-54
2021/12/13 21:51:00;;;;;;;8.23;5.90;;;9.30;99.90;;;;;;5057667;28;20343;-53
2021/12/13 21:53:40;;;;;;;7.37;5.90;;;9.30;99.90;;;;;;5058923;28;20787;-53
2021/12/13 21:56:13;;;;;;;7.37;5.57;;;9.30;99.90;;;;;;5055963;28;20230;-53
2021/12/13 21:58:49;;;;;;;10.33;6.10;;;9.20;99.90;;;;;;5063166;28;20202;-53
2021/12/13 22:01:25;;;;;;;10.13;7.00;;;9.20;99.90;;;;;;5058161;28;20208;-53
2021/12/13 22:04:14;;;;;;;8.93;5.87;;;9.20;99.90;;;;;;5059890;28;20215;-53
2021/12/13 22:06:47;;;;;;;7.37;5.73;;;9.20;99.90;;;;;;5066923;28;20616;-55
2021/12/13 22:09:26;;;;;;;7.67;5.73;;;9.20;99.90;;;;;;5076636;28;20198;-54
2021/12/13 22:11:58;;;;;;;7.37;6.00;;;9.20;99.90;;;;;;5075235;28;20228;-53
2021/12/13 22:14:45;;;;;;;7.83;6.47;;;9.20;99.90;;;;;;5073610;28;20741;-53
2021/12/13 22:17:18;;;;;;;8.50;6.27;;;9.20;99.90;;;;;;5069295;28;20279;-52
2021/12/13 22:19:52;;;;;;;6.57;5.70;;;9.20;99.90;;;;;;5073291;28;20621;-52
2021/12/13 22:22:24;;;;;;;7.17;6.00;;;9.20;99.90;;;;;;5084072;28;20232;-52
2021/12/13 22:25:03;;;;;;;9.43;5.90;;;9.20;99.90;;;;;;5079146;28;20693;-55
2021/12/13 22:27:35;;;;;;;7.23;6.03;;;9.20;99.90;;;;;;5075871;28;20279;-53
2021/12/13 22:30:14;;;;;;;7.00;6.23;;;9.30;99.90;;;;;;5077711;28;20202;-54
2021/12/13 22:32:43;;;;;;;8.77;6.43;;;9.20;99.90;;;;;;5081124;28;20308;-53
2021/12/13 22:35:18;;;;;;;7.60;5.83;;;9.20;99.90;;;;;;5070315;28;20286;-51
2021/12/13 22:37:58;;;;;;;8.97;6.27;;;9.30;99.90;;;;;;5079904;28;20833;-55
2021/12/13 22:40:51;;;;;;;7.73;6.13;;;9.30;99.90;;;;;;5076447;28;20304;-51
2021/12/13 22:43:28;;;;;;;7.10;5.60;;;9.30;99.90;;;;;;5077210;28;20223;-55
2021/12/13 22:46:25;;;;;;;10.63;6.70;;;9.40;99.90;;;;;;5077906;28;20333;-54
2021/12/13 22:49:12;;;;;;;9.87;6.43;;;9.30;99.90;;;;;;5083709;28;20203;-53
2021/12/13 22:51:43;;;;;;;7.20;6.00;;;9.30;99.90;;;;;;5077934;28;20718;-54
2021/12/13 22:54:11;;;;;;;10.37;6.33;;;9.30;99.90;;;;;;5081668;28;20196;-52
2021/12/13 22:56:38;;;;;;;7.23;6.10;;;9.30;99.90;;;;;;5073907;28;20297;-51
2021/12/13 22:59:12;;;;;;;6.90;5.40;;;9.30;99.90;;;;;;5074206;28;20217;-53
2021/12/13 23:01:48;;;;;;;8.83;6.03;;;9.30;99.90;;;;;;5068819;28;20235;-52
2021/12/13 23:04:22;;;;;;;8.00;6.20;;;9.40;99.90;;;;;;5071399;28;20680;-52
2021/12/13 23:06:49;;;;;;;8.97;6.20;;;9.30;99.90;;;;;;5076859;28;20232;-53
2021/12/13 23:09:22;;;;;;;8.53;6.20;;;9.20;99.90;;;;;;5077343;28;20304;-52
2021/12/13 23:13:45;;;;;;;8.03;6.70;;;9.20;99.90;;;;;;5075873;28;20281;-53
2021/12/13 23:14:39;;;;;;;7.63;5.83;;;9.20;99.90;;;;;;5073239;28;20255;-53
2021/12/13 23:17:07;;;;;;;8.57;6.17;;;9.10;99.90;;;;;;5069498;28;20332;-54
2021/12/13 23:19:35;;;;;;;8.30;6.20;;;9.10;99.90;;;;;;5073134;28;20660;-54
2021/12/13 23:22:09;;;;;;;9.17;6.50;;;9.00;99.90;;;;;;5068742;28;20291;-53
2021/12/13 23:24:38;;;;;;;6.03;5.40;;;9.10;99.90;;;;;;5074684;28;20658;-54
2021/12/13 23:27:08;;;;;;;6.50;5.80;;;9.00;99.90;;;;;;5074068;28;20248;-52
2021/12/13 23:29:53;;;;;;;9.57;6.67;;;9.10;99.90;;;;;;5072963;28;20274;-53
2021/12/13 23:32:25;;;;;;;8.10;6.27;;;9.10;99.90;;;;;;5077823;28;20989;-55
2021/12/13 23:34:54;;;;;;;7.47;6.07;;;9.10;99.90;;;;;;5071804;28;20234;-53
2021/12/13 23:37:24;;;;;;;9.10;6.83;;;9.10;99.90;;;;;;5078606;28;20244;-52
2021/12/13 23:45:49;;;;;;;9.33;7.00;;;9.10;99.90;;;;;;5073328;28;20629;-54
2021/12/13 23:48:23;;;;;;;8.57;6.23;;;9.10;99.90;;;;;;5072605;28;20229;-53
2021/12/13 23:51:08;;;;;;;7.87;6.00;;;9.10;99.90;;;;;;5068749;28;20733;-54
2021/12/13 23:53:36;;;;;;;8.30;6.70;;;9.10;99.90;;;;;;5075541;28;20360;-53
2021/12/13 23:56:19;;;;;;;7.43;5.80;;;9.10;99.90;;;;;;5072502;28;20202;-53
2021/12/13 23:58:56;;;;;;;10.47;6.57;;;9.10;99.90;;;;;;5078262;28;20207;-53
